createdAt,value
2022-07-28T00:00:02.608Z,99737.22
2022-07-28T00:02:32.329Z,99741.28
2022-07-28T00:05:00.821Z,99738.94
2022-07-28T00:07:28.708Z,99734.53
2022-07-28T00:10:00.375Z,99731.09
2022-07-28T00:12:28.999Z,99730.09
2022-07-28T00:14:57.190Z,99730.12
2022-07-28T00:17:25.276Z,99729.78
2022-07-28T00:19:53.684Z,99732.63
2022-07-28T00:22:21.414Z,99729.63
2022-07-28T00:24:49.835Z,99733.16
2022-07-28T00:27:19.545Z,99732.81
2022-07-28T00:29:51.002Z,99726.37
2022-07-28T00:32:20.899Z,99724.13
2022-07-28T00:34:53.583Z,99716.06
2022-07-28T00:37:21.946Z,99720.78
2022-07-28T00:39:49.599Z,99718.59
2022-07-28T00:42:20.995Z,99720.13
2022-07-28T00:44:48.920Z,99720.97
2022-07-28T00:47:16.568Z,99714.13
2022-07-28T00:49:45.038Z,99711.84
2022-07-28T00:52:13.901Z,99714.22
2022-07-28T00:54:42.070Z,99712.16
2022-07-28T00:57:09.639Z,99704.88
2022-07-28T00:59:37.680Z,99703.72
2022-07-28T01:02:05.345Z,99716.81
2022-07-28T01:04:33.518Z,99717.16
2022-07-28T01:07:14.856Z,99718.53
2022-07-28T01:09:51.177Z,99711.75
2022-07-28T01:12:28.365Z,99708.06
2022-07-28T01:15:21.776Z,99713.63
2022-07-28T01:18:08.761Z,99705.38
2022-07-28T01:20:41.157Z,99710.34
2022-07-28T01:23:15.674Z,99719.06
2022-07-28T01:26:05.699Z,99712.03
2022-07-28T01:28:47.489Z,99717.56
2022-07-28T01:31:20.188Z,99712.88
2022-07-28T01:33:51.853Z,99719.03
2022-07-28T01:36:24.920Z,99722.66
2022-07-28T01:38:53.705Z,99722.97
2022-07-28T01:41:24.387Z,99725.72
2022-07-28T01:43:57.630Z,99727.56
2022-07-28T01:46:26.504Z,99730.28
2022-07-28T01:48:56.971Z,99741.50
2022-07-28T01:51:27.698Z,99732.75
2022-07-28T01:54:00.165Z,99731.50
2022-07-28T01:56:31.111Z,99719.34
2022-07-28T01:59:02.819Z,99726.97
2022-07-28T02:01:33.712Z,99728.31
2022-07-28T02:04:05.107Z,99726.34
2022-07-28T02:06:34.171Z,99724.00
2022-07-28T02:09:05.093Z,99720.25
2022-07-28T02:11:40.288Z,99712.44
2022-07-28T02:14:15.537Z,99710.09
2022-07-28T02:16:59.304Z,99705.91
2022-07-28T02:19:28.059Z,99717.34
2022-07-28T02:21:56.610Z,99717.09
2022-07-28T02:24:29.170Z,99723.28
2022-07-28T02:27:00.872Z,99715.03
2022-07-28T02:29:50.153Z,99712.16
2022-07-28T02:32:41.328Z,99712.41
2022-07-28T02:35:17.609Z,99710.19
2022-07-28T02:37:52.639Z,99717.03
2022-07-28T02:40:21.994Z,99728.88
2022-07-28T02:42:51.228Z,99732.59
2022-07-28T02:45:22.694Z,99727.59
2022-07-28T02:47:54.009Z,99737.44
2022-07-28T02:50:23.714Z,99736.31
2022-07-28T02:52:53.279Z,99742.91
2022-07-28T02:55:20.941Z,99735.88
2022-07-28T02:57:53.201Z,99741.31
2022-07-28T03:00:26.802Z,99739.59
2022-07-28T03:02:55.368Z,99745.88
2022-07-28T03:05:24.055Z,99746.94
2022-07-28T03:07:52.896Z,99745.47
2022-07-28T03:10:34.179Z,99753.22
2022-07-28T03:13:09.499Z,99751.00
2022-07-28T03:15:37.790Z,99750.59
2022-07-28T03:18:06.005Z,99751.75
2022-07-28T03:20:34.363Z,99759.19
2022-07-28T03:23:02.662Z,99758.00
2022-07-28T03:26:02.243Z,99752.59
2022-07-28T03:28:30.434Z,99758.53
2022-07-28T03:31:02.497Z,99759.56
2022-07-28T03:33:30.579Z,99763.72
2022-07-28T03:36:05.997Z,99764.97
2022-07-28T03:38:34.297Z,99762.84
2022-07-28T03:41:03.287Z,99759.69
2022-07-28T03:43:32.214Z,99768.09
2022-07-28T03:46:01.898Z,99781.13
2022-07-28T03:48:32.265Z,99778.34
2022-07-28T03:51:01.422Z,99770.28
2022-07-28T03:53:31.100Z,99779.84
2022-07-28T03:55:59.519Z,99782.63
2022-07-28T03:58:28.915Z,99777.03
2022-07-28T04:00:59.774Z,99789.16
2022-07-28T04:03:41.177Z,99788.19
2022-07-28T04:06:12.966Z,99785.34
2022-07-28T04:08:42.079Z,99789.50
2022-07-28T04:11:09.957Z,99794.00
2022-07-28T04:13:37.713Z,99791.69
2022-07-28T04:16:07.390Z,99798.59
2022-07-28T04:18:35.845Z,99792.59
2022-07-28T04:21:04.284Z,99792.59
2022-07-28T04:23:32.788Z,99791.25
2022-07-28T04:26:01.640Z,99799.66
2022-07-28T04:28:30.173Z,99796.25
2022-07-28T04:30:58.474Z,99804.88
2022-07-28T04:33:28.227Z,99796.09
2022-07-28T04:35:56.801Z,99800.31
2022-07-28T04:38:25.402Z,99802.69
2022-07-28T04:40:54.452Z,99807.09
2022-07-28T04:43:22.955Z,99805.69
2022-07-28T04:45:53.766Z,99797.06
2022-07-28T04:48:23.862Z,99799.12
2022-07-28T04:50:54.369Z,99797.66
2022-07-28T04:53:23.036Z,99801.91
2022-07-28T04:55:54.563Z,99801.44
2022-07-28T04:58:23.702Z,99805.81
2022-07-28T05:00:56.259Z,99803.06
2022-07-28T05:03:24.738Z,99810.91
2022-07-28T05:05:55.088Z,99803.41
2022-07-28T05:08:26.462Z,99807.88
2022-07-28T05:10:57.170Z,99809.09
2022-07-28T05:13:31.946Z,99798.56
2022-07-28T05:16:02.794Z,99809.81
2022-07-28T05:18:30.939Z,99812.69
2022-07-28T05:20:59.385Z,99810.84
2022-07-28T05:23:27.618Z,99811.41
2022-07-28T05:25:59.048Z,99807.03
2022-07-28T05:28:27.245Z,99819.69
2022-07-28T05:30:57.146Z,99821.28
2022-07-28T05:33:31.776Z,99823.97
2022-07-28T05:36:00.723Z,99822.12
2022-07-28T05:38:30.477Z,99824.81
2022-07-28T05:41:00.871Z,99830.28
2022-07-28T05:43:29.585Z,99825.69
2022-07-28T05:45:58.352Z,99828.25
2022-07-28T05:48:28.869Z,99833.50
2022-07-28T05:50:57.932Z,99838.38
2022-07-28T05:53:25.993Z,99842.78
2022-07-28T05:56:00.516Z,99836.75
2022-07-28T05:58:31.534Z,99836.22
2022-07-28T06:01:02.466Z,99841.78
2022-07-28T06:03:41.463Z,99844.47
2022-07-28T06:06:15.358Z,99848.72
2022-07-28T06:08:47.879Z,99846.50
2022-07-28T06:11:22.620Z,99859.19
2022-07-28T06:13:53.091Z,99851.56
2022-07-28T06:16:22.905Z,99863.06
2022-07-28T06:18:53.002Z,99858.50
2022-07-28T06:21:26.824Z,99856.63
2022-07-28T06:23:57.106Z,99860.03
2022-07-28T06:26:26.267Z,99856.91
2022-07-28T06:28:54.985Z,99864.69
2022-07-28T06:31:31.132Z,99867.88
2022-07-28T06:34:00.158Z,99873.63
2022-07-28T06:36:29.433Z,99871.59
2022-07-28T06:38:58.342Z,99872.44
2022-07-28T06:41:26.186Z,99864.47
2022-07-28T06:43:54.713Z,99864.50
2022-07-28T06:46:23.299Z,99867.19
2022-07-28T06:48:59.067Z,99873.28
2022-07-28T06:51:28.938Z,99873.47
2022-07-28T06:53:58.754Z,99878.91
2022-07-28T06:56:32.179Z,99875.88
2022-07-28T06:59:03.366Z,99874.72
2022-07-28T07:01:35.475Z,99876.72
2022-07-28T07:04:03.509Z,99885.94
2022-07-28T07:06:31.676Z,99873.63
2022-07-28T07:09:05.319Z,99875.84
2022-07-28T07:11:39.614Z,99866.75
2022-07-28T07:14:11.042Z,99872.78
2022-07-28T07:16:40.113Z,99873.25
2022-07-28T07:19:13.940Z,99864.91
2022-07-28T07:21:45.999Z,99866.00
2022-07-28T07:24:16.032Z,99870.44
2022-07-28T07:26:45.355Z,99876.34
2022-07-28T07:29:13.462Z,99871.16
2022-07-28T07:31:45.935Z,99875.56
2022-07-28T07:34:19.084Z,99874.13
2022-07-28T07:36:49.885Z,99876.78
2022-07-28T07:39:25.264Z,99872.75
2022-07-28T07:41:56.049Z,99882.19
2022-07-28T07:44:26.008Z,99867.31
2022-07-28T07:46:55.359Z,99869.50
2022-07-28T07:49:24.171Z,99866.34
2022-07-28T07:51:53.147Z,99864.91
2022-07-28T07:54:23.104Z,99858.91
2022-07-28T07:56:53.281Z,99864.22
2022-07-28T07:59:25.601Z,99866.72
2022-07-28T08:02:01.958Z,99873.97
2022-07-28T08:04:30.020Z,99858.59
2022-07-28T08:06:58.280Z,99869.19
2022-07-28T08:09:26.863Z,99865.34
2022-07-28T08:11:55.857Z,99865.53
2022-07-28T08:14:24.036Z,99869.63
2022-07-28T08:16:59.859Z,99854.63
2022-07-28T08:19:34.963Z,99866.88
2022-07-28T08:22:03.632Z,99856.72
2022-07-28T08:24:34.519Z,99858.97
2022-07-28T08:27:02.969Z,99858.91
2022-07-28T08:29:33.178Z,99859.44
2022-07-28T08:32:04.455Z,99864.13
2022-07-28T08:34:41.111Z,99865.41
2022-07-28T08:37:14.208Z,99870.91
2022-07-28T08:39:43.167Z,99868.53
2022-07-28T08:42:35.898Z,99864.19
2022-07-28T08:45:13.109Z,99863.53
2022-07-28T08:48:07.253Z,99860.94
2022-07-28T08:50:35.697Z,99858.44
2022-07-28T08:53:06.764Z,99850.84
2022-07-28T08:55:38.387Z,99853.44
2022-07-28T08:58:14.845Z,99845.78
2022-07-28T09:00:52.376Z,99851.13
2022-07-28T09:03:20.734Z,99856.94
2022-07-28T09:05:50.459Z,99854.16
2022-07-28T09:08:20.716Z,99855.75
2022-07-28T09:10:50.362Z,99853.75
2022-07-28T09:13:20.366Z,99853.88
2022-07-28T09:15:54.616Z,99857.84
2022-07-28T09:18:24.605Z,99852.41
2022-07-28T09:20:55.817Z,99850.97
2022-07-28T09:23:42.793Z,99843.00
2022-07-28T09:26:17.907Z,99848.47
2022-07-28T09:29:05.917Z,99845.53
2022-07-28T09:31:34.558Z,99836.31
2022-07-28T09:34:06.091Z,99831.03
2022-07-28T09:36:42.078Z,99828.31
2022-07-28T09:39:13.079Z,99836.28
2022-07-28T09:41:57.744Z,99836.31
2022-07-28T09:44:27.542Z,99827.41
2022-07-28T09:47:00.314Z,99821.34
2022-07-28T09:49:44.637Z,99813.47
2022-07-28T09:52:14.821Z,99818.03
2022-07-28T09:55:11.919Z,99820.59
2022-07-28T09:57:45.884Z,99806.12
2022-07-28T10:00:27.924Z,99814.91
2022-07-28T10:02:58.190Z,99801.69
2022-07-28T10:05:42.147Z,99805.59
2022-07-28T10:08:19.170Z,99802.28
2022-07-28T10:11:00.782Z,99807.44
2022-07-28T10:13:29.211Z,99810.13
2022-07-28T10:16:14.242Z,99799.12
2022-07-28T10:18:42.653Z,99800.66
2022-07-28T10:21:18.369Z,99785.91
2022-07-28T10:23:52.899Z,99792.97
2022-07-28T10:26:29.654Z,99786.13
2022-07-28T10:29:09.016Z,99787.28
2022-07-28T10:43:49.733Z,99787.72
2022-07-28T10:46:18.143Z,99781.25
2022-07-28T10:48:56.205Z,99777.03
2022-07-28T10:51:28.179Z,99778.66
2022-07-28T10:54:07.024Z,99776.72
2022-07-28T10:56:47.054Z,99777.69
2022-07-28T10:59:40.621Z,99782.31
2022-07-28T11:02:43.151Z,99764.50
2022-07-28T11:05:33.390Z,99767.16
2022-07-28T11:08:06.671Z,99751.16
2022-07-28T11:10:58.908Z,99760.53
2022-07-28T11:13:41.036Z,99751.41
2022-07-28T11:16:15.687Z,99750.37
2022-07-28T11:19:04.823Z,99748.81
2022-07-28T11:21:39.615Z,99748.66
2022-07-28T11:24:09.217Z,99744.91
2022-07-28T11:26:44.917Z,99750.41
2022-07-28T11:29:12.838Z,99753.09
2022-07-28T11:31:46.824Z,99754.31
2022-07-28T11:34:22.859Z,99756.38
2022-07-28T11:37:08.299Z,99753.62
2022-07-28T11:39:43.273Z,99752.72
2022-07-28T11:42:25.427Z,99757.28
2022-07-28T11:44:54.910Z,99743.47
2022-07-28T11:47:24.551Z,99750.94
2022-07-28T11:50:15.433Z,99743.63
2022-07-28T11:52:54.077Z,99745.28
2022-07-28T11:55:55.267Z,99748.81
2022-07-28T11:58:24.250Z,99747.25
2022-07-28T12:01:17.178Z,99749.22
2022-07-28T12:03:55.412Z,99746.81
2022-07-28T12:06:29.199Z,99743.25
2022-07-28T12:09:02.335Z,99743.91
2022-07-28T12:11:33.036Z,99741.03
2022-07-28T12:20:55.419Z,99734.91
2022-07-28T12:23:38.993Z,99736.59
2022-07-28T12:26:31.439Z,99725.44
2022-07-28T12:29:08.405Z,99731.59
2022-07-28T12:32:03.033Z,99727.97
2022-07-28T12:34:35.240Z,99728.03
2022-07-28T12:37:07.085Z,99721.44
2022-07-28T12:39:43.568Z,99722.19
2022-07-28T12:45:01.367Z,99716.34
2022-07-28T12:52:01.944Z,99729.28
2022-07-28T12:54:38.997Z,99712.78
2022-07-28T12:57:08.998Z,99720.88
2022-07-28T12:59:45.978Z,99716.53
2022-07-28T13:02:35.915Z,99711.75
2022-07-28T13:05:07.979Z,99715.19
2022-07-28T13:07:42.504Z,99705.16
2022-07-28T13:10:22.003Z,99711.53
2022-07-28T13:13:07.006Z,99709.59
2022-07-28T13:16:11.270Z,99693.47
2022-07-28T13:19:32.955Z,99700.44
2022-07-28T13:22:08.590Z,99703.19
2022-07-28T13:25:01.298Z,99703.94
2022-07-28T13:27:33.273Z,99696.91
2022-07-28T13:30:02.569Z,99691.88
2022-07-28T13:32:34.674Z,99697.69
2022-07-28T13:35:23.209Z,99693.69
2022-07-28T13:37:56.992Z,99688.22
2022-07-28T13:40:25.423Z,99683.91
2022-07-28T13:42:57.859Z,99671.28
2022-07-28T13:45:30.314Z,99672.03
2022-07-28T13:47:58.192Z,99669.56
2022-07-28T13:50:28.200Z,99673.28
2022-07-28T13:52:56.921Z,99682.28
2022-07-28T13:55:29.264Z,99685.28
2022-07-28T13:58:08.742Z,99672.38
2022-07-28T14:00:41.433Z,99676.09
2022-07-28T14:03:14.085Z,99669.91
2022-07-28T14:05:43.348Z,99681.56
2022-07-28T14:08:25.230Z,99671.69
2022-07-28T14:11:09.871Z,99675.13
2022-07-28T14:13:40.323Z,99667.22
2022-07-28T14:16:12.414Z,99662.09
2022-07-28T14:18:43.222Z,99667.22
2022-07-28T14:21:15.092Z,99664.53
2022-07-28T14:23:46.888Z,99658.91
2022-07-28T14:26:34.959Z,99652.41
2022-07-28T14:31:45.167Z,99646.59
2022-07-28T14:34:15.408Z,99648.81
2022-07-28T14:36:53.985Z,99651.44
2022-07-28T14:39:23.002Z,99657.37
2022-07-28T14:41:51.446Z,99652.00
2022-07-28T14:44:24.904Z,99649.59
2022-07-28T14:46:54.363Z,99652.75
2022-07-28T14:49:27.074Z,99650.00
2022-07-28T14:52:02.005Z,99650.31
2022-07-28T14:54:30.542Z,99638.81
2022-07-28T14:57:03.242Z,99650.19
2022-07-28T14:59:41.051Z,99639.31
2022-07-28T15:02:12.402Z,99645.00
2022-07-28T15:04:48.075Z,99650.31
2022-07-28T15:07:24.499Z,99625.03
2022-07-28T15:09:52.606Z,99630.41
2022-07-28T15:12:22.218Z,99641.03
2022-07-28T15:14:50.550Z,99636.06
2022-07-28T15:21:23.424Z,99635.00
2022-07-28T15:23:57.482Z,99637.06
2022-07-28T15:26:25.967Z,99635.53
2022-07-28T15:28:55.136Z,99632.47
2022-07-28T15:31:30.035Z,99630.81
2022-07-28T15:34:05.260Z,99630.91
2022-07-28T15:36:36.780Z,99625.59
2022-07-28T15:39:14.096Z,99634.38
2022-07-28T15:41:50.043Z,99636.13
2022-07-28T15:48:28.090Z,99630.94
2022-07-28T15:50:57.166Z,99632.25
2022-07-28T15:53:27.428Z,99626.16
2022-07-28T15:56:00.313Z,99616.12
2022-07-28T15:58:29.185Z,99632.22
2022-07-28T16:01:04.280Z,99619.59
2022-07-28T16:03:35.984Z,99629.81
2022-07-28T16:06:12.295Z,99627.25
2022-07-28T16:08:42.231Z,99620.53
2022-07-28T16:11:12.503Z,99616.41
2022-07-28T16:13:44.428Z,99623.09
2022-07-28T16:16:18.100Z,99622.78
2022-07-28T16:18:50.239Z,99622.34
2022-07-28T16:21:19.174Z,99624.09
2022-07-28T16:23:49.067Z,99621.97
2022-07-28T16:26:24.162Z,99626.22
2022-07-28T16:28:58.041Z,99629.00
2022-07-28T16:31:30.278Z,99627.06
2022-07-28T16:33:59.074Z,99620.13
2022-07-28T16:36:33.234Z,99619.13
2022-07-28T16:39:13.034Z,99620.72
2022-07-28T16:41:47.597Z,99621.34
2022-07-28T16:44:17.305Z,99617.44
2022-07-28T16:46:55.083Z,99621.06
2022-07-28T16:49:25.254Z,99627.34
2022-07-28T16:52:07.071Z,99623.84
2022-07-28T16:54:35.447Z,99627.66
2022-07-28T16:57:12.057Z,99630.72
2022-07-28T16:59:47.929Z,99626.22
2022-07-28T17:02:19.340Z,99624.75
2022-07-28T17:04:48.825Z,99629.91
2022-07-28T17:07:16.999Z,99631.00
2022-07-28T17:09:46.160Z,99626.34
2022-07-28T17:12:24.712Z,99632.06
2022-07-28T17:14:54.021Z,99631.00
2022-07-28T17:17:29.281Z,99637.63
2022-07-28T17:19:57.204Z,99634.63
2022-07-28T17:22:29.222Z,99633.03
2022-07-28T17:25:06.948Z,99631.66
2022-07-28T17:27:48.126Z,99631.66
2022-07-28T17:30:17.067Z,99633.63
2022-07-28T17:32:52.143Z,99631.62
2022-07-28T17:35:34.388Z,99637.41
2022-07-28T17:38:09.329Z,99636.03
2022-07-28T17:40:38.291Z,99641.47
2022-07-28T17:43:06.589Z,99640.00
2022-07-28T17:45:35.841Z,99643.41
2022-07-28T17:48:09.061Z,99639.69
2022-07-28T17:50:37.126Z,99639.25
2022-07-28T17:53:06.312Z,99642.66
2022-07-28T17:55:57.551Z,99653.41
2022-07-28T17:58:32.667Z,99654.06
2022-07-28T18:01:10.304Z,99650.25
2022-07-28T18:03:58.795Z,99651.50
2022-07-28T18:06:35.082Z,99653.06
2022-07-28T18:09:12.457Z,99651.41
2022-07-28T18:11:56.715Z,99653.13
2022-07-28T18:14:33.119Z,99651.91
2022-07-28T18:17:05.084Z,99662.84
2022-07-28T18:19:35.105Z,99666.81
2022-07-28T18:22:07.632Z,99666.19
2022-07-28T18:24:38.141Z,99670.19
2022-07-28T18:27:13.140Z,99673.53
2022-07-28T18:29:43.191Z,99676.91
2022-07-28T18:32:17.554Z,99675.63
2022-07-28T18:37:23.878Z,99678.16
2022-07-28T18:39:53.576Z,99677.66
2022-07-28T18:42:35.099Z,99687.31
2022-07-28T18:45:08.028Z,99682.25
2022-07-28T18:47:46.536Z,99693.78
2022-07-28T18:50:27.883Z,99694.84
2022-07-28T18:55:41.272Z,99707.41
2022-07-28T18:58:11.191Z,99703.91
2022-07-28T19:00:48.034Z,99715.16
2022-07-28T19:03:16.283Z,99711.41
2022-07-28T19:05:48.135Z,99712.06
2022-07-28T19:08:17.254Z,99722.06
2022-07-28T19:10:53.064Z,99717.00
2022-07-28T19:13:25.473Z,99723.94
2022-07-28T19:16:04.202Z,99726.50
2022-07-28T19:18:35.282Z,99722.66
2022-07-28T19:26:32.127Z,99716.41
2022-07-28T19:29:06.428Z,99718.25
2022-07-28T19:34:19.128Z,99721.78
2022-07-28T19:42:09.827Z,99735.16
2022-07-28T19:44:42.855Z,99733.31
2022-07-28T19:47:19.455Z,99740.72
2022-07-28T19:49:51.413Z,99741.09
2022-07-28T19:52:23.954Z,99753.75
2022-07-28T19:54:57.124Z,99743.91
2022-07-28T19:57:35.612Z,99755.34
2022-07-28T20:00:12.339Z,99752.69
2022-07-28T20:02:51.189Z,99749.78
2022-07-28T20:05:23.150Z,99757.75
2022-07-28T20:07:55.211Z,99756.72
2022-07-28T20:10:28.384Z,99753.19
2022-07-28T20:13:06.231Z,99755.53
2022-07-28T20:15:34.125Z,99762.09
2022-07-28T20:18:03.291Z,99766.56
2022-07-28T20:20:31.611Z,99764.75
2022-07-28T20:23:04.115Z,99763.53
2022-07-28T20:28:12.149Z,99762.69
2022-07-28T20:30:50.142Z,99770.28
2022-07-28T20:33:18.575Z,99764.53
2022-07-28T20:35:48.065Z,99774.03
2022-07-28T20:38:30.090Z,99769.78
2022-07-28T20:41:01.985Z,99776.09
2022-07-28T20:43:37.770Z,99780.97
2022-07-28T20:48:48.373Z,99784.06
2022-07-28T20:51:24.221Z,99785.75
2022-07-28T20:53:58.132Z,99786.41
2022-07-28T20:56:26.963Z,99791.22
2022-07-28T20:59:00.562Z,99787.13
2022-07-28T21:01:37.372Z,99787.13
2022-07-28T21:04:05.888Z,99785.38
2022-07-28T21:06:36.117Z,99785.88
2022-07-28T21:09:09.965Z,99786.06
2022-07-28T21:11:38.859Z,99781.84
2022-07-28T21:14:08.205Z,99782.06
2022-07-28T21:16:36.356Z,99790.34
2022-07-28T21:19:06.695Z,99790.03
2022-07-28T21:21:36.307Z,99792.75
2022-07-28T21:24:06.992Z,99793.91
2022-07-28T21:26:35.573Z,99797.81
2022-07-28T21:32:04.645Z,99793.09
2022-07-28T21:34:36.046Z,99804.09
2022-07-28T21:37:05.987Z,99800.19
2022-07-28T21:39:34.597Z,99804.75
2022-07-28T21:42:07.708Z,99802.37
2022-07-28T21:44:39.564Z,99808.63
2022-07-28T21:47:07.094Z,99799.50
2022-07-28T21:49:36.076Z,99807.12
2022-07-28T21:52:07.155Z,99800.66
2022-07-28T21:54:36.628Z,99812.34
2022-07-28T21:57:22.467Z,99812.50
2022-07-28T21:59:55.079Z,99812.84
2022-07-28T22:02:24.287Z,99825.03
2022-07-28T22:04:54.663Z,99835.59
2022-07-28T22:07:24.034Z,99829.88
2022-07-28T22:09:51.661Z,99830.03
2022-07-28T22:12:19.914Z,99835.63
2022-07-28T22:14:47.920Z,99835.66
2022-07-28T22:17:15.509Z,99841.69
2022-07-28T22:19:43.714Z,99831.44
2022-07-28T22:22:11.434Z,99828.53
2022-07-28T22:24:39.500Z,99836.53
2022-07-28T22:27:07.391Z,99838.81
2022-07-28T22:29:35.100Z,99846.06
2022-07-28T22:32:03.905Z,99846.28
2022-07-28T22:34:34.027Z,99847.81
2022-07-28T22:37:13.201Z,99841.19
2022-07-28T22:39:42.061Z,99853.47
2022-07-28T22:42:10.670Z,99846.84
2022-07-28T22:44:39.344Z,99843.53
2022-07-28T22:47:07.194Z,99839.59
2022-07-28T22:49:34.933Z,99842.16
2022-07-28T22:52:02.446Z,99847.22
2022-07-28T22:54:30.261Z,99845.22
2022-07-28T22:56:58.441Z,99840.97
2022-07-28T22:59:26.166Z,99836.13
2022-07-28T23:01:56.712Z,99830.22
2022-07-28T23:04:24.485Z,99840.59
2022-07-28T23:06:54.880Z,99843.03
2022-07-28T23:09:23.009Z,99841.69
2022-07-28T23:11:55.930Z,99836.75
2022-07-28T23:14:24.625Z,99836.75
2022-07-28T23:16:52.317Z,99840.47
2022-07-28T23:19:21.572Z,99835.84
2022-07-28T23:21:49.598Z,99838.72
2022-07-28T23:24:19.138Z,99833.87
2022-07-28T23:26:47.969Z,99837.41
2022-07-28T23:29:15.833Z,99836.31
2022-07-28T23:31:43.884Z,99837.41
2022-07-28T23:34:11.540Z,99842.09
2022-07-28T23:36:39.712Z,99841.91
2022-07-28T23:39:08.511Z,99847.56
2022-07-28T23:41:36.939Z,99841.81
2022-07-28T23:44:05.472Z,99844.84
2022-07-28T23:46:33.220Z,99850.25
2022-07-28T23:49:00.931Z,99852.59
2022-07-28T23:51:46.934Z,99847.13
2022-07-28T23:54:16.956Z,99852.91
2022-07-28T23:56:46.388Z,99849.28
2022-07-28T23:59:14.870Z,99857.56
